createdAt,value
2023-04-15T00:01:48.051Z,65.05
2023-04-15T00:04:14.749Z,64.98
2023-04-15T00:06:41.698Z,64.92
2023-04-15T00:09:08.142Z,64.93
2023-04-15T00:11:34.798Z,64.78
2023-04-15T00:14:01.284Z,64.94
2023-04-15T00:16:28.436Z,65.29
2023-04-15T00:18:55.075Z,65.48
2023-04-15T00:21:21.820Z,65.38
2023-04-15T00:23:52.577Z,65.44
2023-04-15T00:26:19.767Z,65.48
2023-04-15T00:28:48.937Z,65.30
2023-04-15T00:31:15.686Z,65.43
2023-04-15T00:33:42.260Z,65.40
2023-04-15T00:36:08.845Z,65.56
2023-04-15T00:38:39.131Z,65.35
2023-04-15T00:41:05.743Z,65.50
2023-04-15T00:43:32.306Z,65.24
2023-04-15T00:45:59.963Z,65.19
2023-04-15T00:48:27.943Z,65.45
2023-04-15T00:50:54.420Z,65.54
2023-04-15T00:53:20.892Z,65.55
2023-04-15T00:55:47.510Z,65.49
2023-04-15T00:58:14.758Z,65.64
2023-04-15T01:00:42.934Z,65.65
2023-04-15T01:03:10.035Z,65.56
2023-04-15T01:05:36.934Z,65.60
2023-04-15T01:08:03.742Z,65.59
2023-04-15T01:10:31.898Z,65.57
2023-04-15T01:12:58.476Z,65.37
2023-04-15T01:15:25.805Z,65.62
2023-04-15T01:17:52.713Z,65.67
2023-04-15T01:20:20.597Z,65.41
2023-04-15T01:22:47.101Z,65.73
2023-04-15T01:25:18.606Z,65.69
2023-04-15T01:27:45.555Z,65.70
2023-04-15T01:30:12.509Z,65.74
2023-04-15T01:32:39.145Z,65.78
2023-04-15T01:35:06.205Z,65.71
2023-04-15T01:37:33.604Z,65.77
2023-04-15T01:40:00.206Z,65.74
2023-04-15T01:42:27.602Z,65.85
2023-04-15T01:44:54.458Z,65.76
2023-04-15T01:47:21.576Z,65.80
2023-04-15T01:49:48.452Z,65.77
2023-04-15T01:52:15.690Z,65.99
2023-04-15T01:54:42.526Z,66.05
2023-04-15T01:57:09.370Z,66.39
2023-04-15T01:59:36.252Z,66.47
2023-04-15T02:02:02.905Z,66.78
2023-04-15T02:04:29.442Z,66.53
2023-04-15T02:06:59.821Z,66.54
2023-04-15T02:09:26.337Z,66.56
2023-04-15T02:11:54.234Z,66.41
2023-04-15T02:14:20.970Z,66.28
2023-04-15T02:16:47.583Z,66.28
2023-04-15T02:19:15.864Z,66.32
2023-04-15T02:21:42.400Z,66.47
2023-04-15T02:24:09.097Z,66.65
2023-04-15T02:26:35.575Z,66.51
2023-04-15T02:29:02.464Z,66.66
2023-04-15T02:31:29.164Z,66.84
2023-04-15T02:33:55.758Z,67.02
2023-04-15T02:36:23.833Z,67.04
2023-04-15T02:38:50.669Z,67.23
2023-04-15T02:41:17.864Z,67.00
2023-04-15T02:43:45.693Z,66.92
2023-04-15T02:46:14.881Z,66.99
2023-04-15T02:48:41.825Z,67.28
2023-04-15T02:51:17.386Z,66.96
2023-04-15T02:53:44.066Z,67.05
2023-04-15T02:56:11.664Z,67.34
2023-04-15T02:58:39.373Z,67.43
2023-04-15T03:01:05.934Z,67.18
2023-04-15T03:03:32.724Z,67.13
2023-04-15T03:05:59.349Z,67.51
2023-04-15T03:08:26.528Z,67.95
2023-04-15T03:10:53.686Z,68.00
2023-04-15T03:13:20.856Z,67.83
2023-04-15T03:15:48.597Z,67.87
2023-04-15T03:18:15.561Z,67.78
2023-04-15T03:20:42.174Z,68.21
2023-04-15T03:23:08.873Z,67.87
2023-04-15T03:25:37.429Z,68.02
2023-04-15T03:28:06.094Z,68.06
2023-04-15T03:30:33.224Z,67.90
2023-04-15T03:32:59.822Z,67.72
2023-04-15T03:35:26.450Z,67.66
2023-04-15T03:37:53.009Z,68.32
2023-04-15T03:40:21.510Z,68.51
2023-04-15T03:42:48.133Z,68.62
2023-04-15T03:45:14.916Z,68.46
2023-04-15T03:47:41.578Z,68.70
2023-04-15T03:50:09.103Z,68.82
2023-04-15T03:52:35.733Z,68.75
2023-04-15T03:55:02.348Z,68.83
2023-04-15T03:57:28.852Z,69.20
2023-04-15T03:59:55.481Z,68.89
2023-04-15T04:02:23.185Z,69.01
2023-04-15T04:04:50.405Z,69.26
2023-04-15T04:07:18.312Z,68.93
2023-04-15T04:09:47.010Z,68.72
2023-04-15T04:12:14.005Z,69.15
2023-04-15T04:14:40.783Z,69.17
2023-04-15T04:17:07.407Z,68.98
2023-04-15T04:19:34.151Z,68.84
2023-04-15T04:22:01.311Z,68.81
2023-04-15T04:24:27.940Z,68.98
2023-04-15T04:26:54.458Z,68.85
2023-04-15T04:29:21.378Z,68.96
2023-04-15T04:31:48.938Z,69.11
2023-04-15T04:34:16.250Z,68.94
2023-04-15T04:36:42.762Z,68.86
2023-04-15T04:39:09.279Z,68.81
2023-04-15T04:41:35.979Z,68.69
2023-04-15T04:44:02.706Z,68.81
2023-04-15T04:46:29.293Z,68.55
2023-04-15T04:48:55.867Z,68.89
2023-04-15T04:51:22.499Z,68.91
2023-04-15T04:53:49.033Z,68.73
2023-04-15T04:56:16.030Z,68.85
2023-04-15T04:58:42.614Z,68.69
2023-04-15T05:01:09.165Z,68.69
2023-04-15T05:03:36.059Z,68.66
2023-04-15T05:06:06.128Z,68.60
2023-04-15T05:08:33.057Z,68.80
2023-04-15T05:10:59.489Z,68.45
2023-04-15T05:13:26.177Z,68.78
2023-04-15T05:15:52.747Z,68.63
2023-04-15T05:18:19.375Z,68.81
2023-04-15T05:20:46.256Z,68.65
2023-04-15T05:23:12.810Z,68.74
2023-04-15T05:25:39.382Z,68.57
2023-04-15T05:28:06.484Z,68.67
2023-04-15T05:30:33.029Z,68.65
2023-04-15T05:32:59.656Z,68.67
2023-04-15T05:35:26.170Z,68.59
2023-04-15T05:37:52.656Z,68.63
2023-04-15T05:40:20.075Z,68.69
2023-04-15T05:42:46.688Z,68.84
2023-04-15T05:45:13.600Z,68.72
2023-04-15T05:47:40.241Z,68.56
2023-04-15T05:50:08.283Z,68.63
2023-04-15T05:52:34.793Z,68.95
2023-04-15T05:55:01.472Z,68.97
2023-04-15T05:57:28.436Z,68.94
2023-04-15T05:59:57.221Z,69.89
2023-04-15T06:02:23.731Z,69.72
2023-04-15T06:04:50.379Z,69.42
2023-04-15T06:07:16.961Z,69.38
2023-04-15T06:09:43.463Z,69.25
2023-04-15T06:12:12.326Z,69.14
2023-04-15T06:14:40.470Z,69.19
2023-04-15T06:17:07.615Z,69.14
2023-04-15T06:19:34.587Z,69.10
2023-04-15T06:22:01.812Z,69.11
2023-04-15T06:24:28.742Z,69.29
2023-04-15T06:26:55.922Z,69.09
2023-04-15T06:29:22.428Z,68.96
2023-04-15T06:31:49.644Z,68.98
2023-04-15T06:34:16.358Z,68.85
2023-04-15T06:36:42.985Z,69.07
2023-04-15T06:39:09.490Z,68.96
2023-04-15T06:41:36.556Z,69.01
2023-04-15T06:44:03.289Z,69.05
2023-04-15T06:46:29.858Z,69.11
2023-04-15T06:48:56.335Z,68.96
2023-04-15T06:51:25.575Z,68.96
2023-04-15T06:53:53.368Z,68.88
2023-04-15T06:56:19.862Z,69.08
2023-04-15T06:58:46.356Z,69.00
2023-04-15T07:01:14.410Z,68.96
2023-04-15T07:03:41.940Z,69.06
2023-04-15T07:06:09.531Z,69.19
2023-04-15T07:08:36.307Z,69.10
2023-04-15T07:11:02.798Z,69.08
2023-04-15T07:13:31.915Z,69.14
2023-04-15T07:15:58.817Z,69.14
2023-04-15T07:18:25.541Z,69.19
2023-04-15T07:20:52.181Z,69.59
2023-04-15T07:23:18.824Z,69.32
2023-04-15T07:25:45.357Z,69.32
2023-04-15T07:28:11.957Z,69.59
2023-04-15T07:30:38.959Z,69.47
2023-04-15T07:33:05.650Z,69.46
2023-04-15T07:35:32.110Z,69.50
2023-04-15T07:37:58.723Z,69.60
2023-04-15T07:40:25.212Z,69.64
2023-04-15T07:42:52.465Z,69.41
2023-04-15T07:45:18.967Z,69.47
2023-04-15T07:47:45.990Z,69.46
2023-04-15T07:50:12.795Z,69.49
2023-04-15T07:52:39.436Z,69.39
2023-04-15T07:55:08.415Z,69.18
2023-04-15T07:57:36.160Z,69.29
2023-04-15T08:00:05.798Z,69.32
2023-04-15T08:02:40.655Z,69.38
2023-04-15T08:05:07.801Z,69.56
2023-04-15T08:07:34.399Z,69.46
2023-04-15T08:10:01.083Z,69.52
2023-04-15T08:12:27.572Z,69.39
2023-04-15T08:14:55.436Z,69.24
2023-04-15T08:17:22.010Z,69.51
2023-04-15T08:19:48.567Z,69.54
2023-04-15T08:22:17.660Z,69.44
2023-04-15T08:24:45.633Z,69.42
2023-04-15T08:27:12.215Z,69.97
2023-04-15T08:29:39.068Z,69.67
2023-04-15T08:32:06.364Z,69.86
2023-04-15T08:34:32.971Z,69.58
2023-04-15T08:36:59.397Z,69.23
2023-04-15T08:39:26.322Z,69.26
2023-04-15T08:42:01.933Z,69.36
2023-04-15T08:44:34.869Z,69.44
2023-04-15T08:47:03.052Z,69.33
2023-04-15T08:49:30.465Z,69.51
2023-04-15T08:51:59.683Z,69.65
2023-04-15T08:54:28.075Z,69.74
2023-04-15T08:56:54.814Z,69.66
2023-04-15T08:59:22.197Z,69.66
2023-04-15T09:01:50.939Z,69.80
2023-04-15T09:04:17.556Z,69.64
2023-04-15T09:06:44.312Z,69.91
2023-04-15T09:09:14.177Z,69.83
2023-04-15T09:11:40.904Z,69.74
2023-04-15T09:14:07.552Z,69.78
2023-04-15T09:17:04.281Z,69.81
2023-04-15T09:19:33.393Z,70.18
2023-04-15T09:22:00.071Z,70.07
2023-04-15T09:24:37.296Z,69.99
2023-04-15T09:27:04.175Z,70.07
2023-04-15T09:29:30.598Z,69.96
2023-04-15T09:31:57.088Z,69.71
2023-04-15T09:34:35.678Z,70.25
2023-04-15T09:37:02.116Z,70.16
2023-04-15T09:39:44.725Z,70.06
2023-04-15T09:42:11.501Z,70.26
2023-04-15T09:44:37.949Z,70.03
2023-04-15T09:47:04.522Z,69.99
2023-04-15T09:49:31.038Z,69.89
2023-04-15T09:52:05.992Z,69.97
2023-04-15T09:54:37.830Z,69.88
2023-04-15T09:57:09.845Z,69.77
2023-04-15T09:59:36.610Z,69.97
2023-04-15T10:02:07.462Z,69.97
2023-04-15T10:04:39.786Z,69.86
2023-04-15T10:07:07.307Z,70.09
2023-04-15T10:09:35.930Z,70.06
2023-04-15T10:12:05.603Z,69.94
2023-04-15T10:14:34.563Z,70.06
2023-04-15T10:17:05.598Z,70.49
2023-04-15T10:19:33.826Z,70.54
2023-04-15T10:22:00.505Z,70.56
2023-04-15T10:24:27.995Z,70.58
2023-04-15T10:26:55.429Z,70.64
2023-04-15T10:29:23.297Z,71.02
2023-04-15T10:31:50.151Z,70.85
2023-04-15T10:34:17.450Z,71.40
2023-04-15T10:36:43.861Z,71.26
2023-04-15T10:39:33.885Z,71.04
2023-04-15T10:42:07.788Z,71.12
2023-04-15T10:44:36.664Z,71.16
2023-04-15T10:47:19.428Z,71.41
2023-04-15T10:49:52.340Z,71.55
2023-04-15T10:52:27.448Z,71.78
2023-04-15T10:55:19.155Z,72.00
2023-04-15T10:57:45.956Z,71.76
2023-04-15T11:00:14.822Z,71.43
2023-04-15T11:02:52.181Z,71.23
2023-04-15T11:05:20.672Z,71.65
2023-04-15T11:07:48.404Z,71.49
2023-04-15T11:10:17.527Z,71.79
2023-04-15T11:12:58.002Z,71.55
2023-04-15T11:15:35.820Z,71.67
2023-04-15T11:18:10.466Z,71.84
2023-04-15T11:20:38.658Z,71.68
2023-04-15T11:23:12.146Z,71.54
2023-04-15T11:25:41.726Z,71.47
2023-04-15T11:28:08.312Z,71.63
2023-04-15T11:30:37.312Z,71.51
2023-04-15T11:33:09.497Z,71.88
2023-04-15T11:35:36.328Z,71.78
2023-04-15T11:38:04.003Z,71.53
2023-04-15T11:40:31.582Z,71.30
2023-04-15T11:43:15.886Z,71.44
2023-04-15T11:45:59.941Z,71.20
2023-04-15T11:48:36.576Z,71.22
2023-04-15T11:51:07.835Z,71.29
2023-04-15T11:53:42.542Z,71.35
2023-04-15T11:56:18.658Z,71.42
2023-04-15T11:58:46.389Z,71.25
2023-04-15T12:01:13.640Z,71.63
2023-04-15T12:03:49.425Z,71.27
2023-04-15T12:06:21.386Z,71.08
2023-04-15T12:09:10.052Z,71.30
2023-04-15T12:11:39.599Z,71.24
2023-04-15T12:14:16.644Z,71.41
2023-04-15T12:16:49.301Z,71.28
2023-04-15T12:19:22.638Z,71.09
2023-04-15T12:21:50.473Z,70.95
2023-04-15T12:24:21.852Z,70.78
2023-04-15T12:26:53.656Z,70.69
2023-04-15T12:29:25.025Z,71.07
2023-04-15T12:31:53.682Z,70.88
2023-04-15T12:34:34.696Z,70.61
2023-04-15T12:37:03.561Z,70.90
2023-04-15T12:39:36.412Z,71.41
2023-04-15T12:42:04.376Z,71.11
2023-04-15T12:44:31.601Z,70.83
2023-04-15T12:46:58.252Z,70.62
2023-04-15T12:49:25.624Z,70.98
2023-04-15T12:51:54.710Z,71.06
2023-04-15T12:54:22.037Z,71.01
2023-04-15T12:56:50.261Z,70.75
2023-04-15T12:59:20.174Z,71.00
2023-04-15T13:01:48.542Z,70.74
2023-04-15T13:04:15.610Z,70.91
2023-04-15T13:06:42.972Z,70.77
2023-04-15T13:09:09.578Z,70.67
2023-04-15T13:11:36.561Z,70.72
2023-04-15T13:14:05.152Z,70.35
2023-04-15T13:16:33.227Z,70.32
2023-04-15T13:19:00.336Z,70.19
2023-04-15T13:21:27.333Z,70.39
2023-04-15T13:23:54.305Z,70.29
2023-04-15T13:26:21.248Z,70.19
2023-04-15T13:28:47.973Z,70.00
2023-04-15T13:31:14.579Z,69.90
2023-04-15T13:33:41.266Z,70.00
2023-04-15T13:36:08.348Z,69.87
2023-04-15T13:38:34.837Z,69.86
2023-04-15T13:41:01.573Z,69.86
2023-04-15T13:43:28.314Z,69.70
2023-04-15T13:45:55.313Z,69.68
2023-04-15T13:48:22.088Z,69.58
2023-04-15T13:50:48.579Z,69.49
2023-04-15T13:53:15.124Z,69.69
2023-04-15T13:55:42.802Z,69.53
2023-04-15T13:58:10.242Z,69.31
2023-04-15T14:00:36.962Z,69.36
2023-04-15T14:03:03.893Z,69.22
2023-04-15T14:05:30.747Z,69.25
2023-04-15T14:07:57.597Z,69.22
2023-04-15T14:10:24.274Z,69.27
2023-04-15T14:12:50.982Z,69.18
2023-04-15T14:15:17.496Z,69.04
2023-04-15T14:17:44.141Z,69.15
2023-04-15T14:20:10.914Z,69.13
2023-04-15T14:22:37.573Z,68.97
2023-04-15T14:25:04.839Z,69.00
2023-04-15T14:27:31.392Z,68.72
2023-04-15T14:29:58.752Z,68.88
2023-04-15T14:32:26.296Z,68.81
2023-04-15T14:34:52.855Z,68.89
2023-04-15T14:37:19.484Z,68.92
2023-04-15T14:39:46.296Z,68.94
2023-04-15T14:42:12.789Z,69.05
2023-04-15T14:44:39.270Z,68.63
2023-04-15T14:47:06.104Z,68.78
2023-04-15T14:49:32.689Z,68.65
2023-04-15T14:51:59.246Z,68.57
2023-04-15T14:54:25.737Z,68.30
2023-04-15T14:56:52.271Z,68.20
2023-04-15T14:59:18.766Z,68.20
2023-04-15T15:01:45.565Z,67.94
2023-04-15T15:04:13.078Z,68.20
2023-04-15T15:06:40.638Z,67.96
2023-04-15T15:09:07.602Z,68.24
2023-04-15T15:11:34.219Z,68.33
2023-04-15T15:14:00.951Z,68.04
2023-04-15T15:16:28.255Z,68.05
2023-04-15T15:18:55.409Z,68.13
2023-04-15T15:21:22.008Z,67.94
2023-04-15T15:23:48.517Z,68.07
2023-04-15T15:26:15.750Z,67.76
2023-04-15T15:28:42.418Z,67.82
2023-04-15T15:31:09.002Z,67.62
2023-04-15T15:33:36.071Z,67.71
2023-04-15T15:36:03.776Z,67.55
2023-04-15T15:38:30.331Z,67.55
2023-04-15T15:40:56.787Z,67.38
2023-04-15T15:43:23.340Z,67.41
2023-04-15T15:45:52.196Z,67.18
2023-04-15T15:48:18.829Z,67.15
2023-04-15T15:50:45.779Z,67.18
2023-04-15T15:53:17.831Z,67.07
2023-04-15T15:55:44.287Z,66.81
2023-04-15T15:58:10.971Z,66.96
2023-04-15T16:00:37.446Z,67.07
2023-04-15T16:03:07.258Z,67.08
2023-04-15T16:05:34.526Z,66.99
2023-04-15T16:08:01.112Z,67.02
2023-04-15T16:10:28.021Z,67.13
2023-04-15T16:12:54.937Z,67.19
2023-04-15T16:15:22.866Z,67.15
2023-04-15T16:17:49.581Z,66.90
2023-04-15T16:20:16.626Z,66.95
2023-04-15T16:22:43.128Z,66.88
2023-04-15T16:25:09.983Z,66.95
2023-04-15T16:27:50.281Z,66.85
2023-04-15T16:30:23.252Z,66.72
2023-04-15T16:32:49.790Z,66.58
2023-04-15T16:35:17.108Z,66.53
2023-04-15T16:37:43.698Z,66.87
2023-04-15T16:40:10.675Z,66.84
2023-04-15T16:42:37.203Z,66.84
2023-04-15T16:45:03.942Z,66.51
2023-04-15T16:47:30.505Z,66.70
2023-04-15T16:49:57.000Z,66.76
2023-04-15T16:52:23.497Z,66.47
2023-04-15T16:54:49.977Z,66.43
2023-04-15T16:57:16.545Z,66.55
2023-04-15T16:59:43.035Z,66.53
2023-04-15T17:02:12.464Z,66.57
2023-04-15T17:04:39.710Z,66.46
2023-04-15T17:07:06.800Z,66.29
2023-04-15T17:09:33.525Z,66.43
2023-04-15T17:12:01.033Z,66.51
2023-04-15T17:14:28.852Z,66.30
2023-04-15T17:16:55.875Z,66.31
2023-04-15T17:19:22.493Z,66.22
2023-04-15T17:21:50.582Z,66.19
2023-04-15T17:24:17.227Z,66.21
2023-04-15T17:26:43.848Z,66.35
2023-04-15T17:29:10.402Z,66.29
2023-04-15T17:31:37.108Z,66.20
2023-04-15T17:34:07.804Z,66.26
2023-04-15T17:36:37.373Z,66.27
2023-04-15T17:39:04.660Z,66.12
2023-04-15T17:41:31.372Z,66.36
2023-04-15T17:43:57.872Z,66.25
2023-04-15T17:46:24.639Z,66.15
2023-04-15T17:48:51.168Z,65.99
2023-04-15T17:51:17.810Z,66.13
2023-04-15T17:53:44.288Z,65.75
2023-04-15T17:56:11.023Z,66.22
2023-04-15T17:58:39.373Z,66.09
2023-04-15T18:01:06.605Z,66.13
2023-04-15T18:03:33.280Z,66.28
2023-04-15T18:06:01.308Z,66.08
2023-04-15T18:08:28.833Z,66.04
2023-04-15T18:10:55.266Z,66.04
2023-04-15T18:13:21.720Z,65.95
2023-04-15T18:15:51.627Z,65.78
2023-04-15T18:18:18.332Z,66.02
2023-04-15T18:20:44.778Z,66.05
2023-04-15T18:23:11.423Z,66.04
2023-04-15T18:25:38.341Z,65.97
2023-04-15T18:28:05.593Z,66.00
2023-04-15T18:30:32.125Z,65.96
2023-04-15T18:32:58.779Z,66.03
2023-04-15T18:35:25.276Z,65.90
2023-04-15T18:37:52.838Z,66.20
2023-04-15T18:40:19.436Z,66.04
2023-04-15T18:42:45.942Z,65.96
2023-04-15T18:45:12.486Z,66.00
2023-04-15T18:47:39.167Z,65.88
2023-04-15T18:50:06.747Z,66.05
2023-04-15T18:52:34.131Z,66.07
2023-04-15T18:55:02.994Z,65.88
2023-04-15T18:57:34.784Z,66.08
2023-04-15T19:00:01.993Z,65.88
2023-04-15T19:02:28.634Z,65.86
2023-04-15T19:04:55.204Z,66.01
2023-04-15T19:07:22.126Z,65.99
2023-04-15T19:09:48.892Z,66.01
2023-04-15T19:12:15.320Z,65.79
2023-04-15T19:14:41.756Z,65.89
2023-04-15T19:17:08.231Z,65.93
2023-04-15T19:19:34.740Z,65.97
2023-04-15T19:22:01.681Z,66.13
2023-04-15T19:24:28.265Z,66.08
2023-04-15T19:26:54.717Z,66.00
2023-04-15T19:29:21.871Z,66.09
2023-04-15T19:31:48.366Z,66.15
2023-04-15T19:34:14.829Z,66.03
2023-04-15T19:36:41.357Z,66.34
2023-04-15T19:39:08.418Z,66.16
2023-04-15T19:41:35.022Z,66.27
2023-04-15T19:44:02.959Z,66.24
2023-04-15T19:46:29.560Z,66.35
2023-04-15T19:48:56.161Z,66.23
2023-04-15T19:51:22.710Z,66.20
2023-04-15T19:53:53.871Z,66.32
2023-04-15T19:56:20.670Z,66.09
2023-04-15T19:58:52.774Z,66.16
2023-04-15T20:01:20.341Z,66.23
2023-04-15T20:03:47.466Z,66.22
2023-04-15T20:06:15.639Z,66.20
2023-04-15T20:08:42.150Z,66.20
2023-04-15T20:11:09.854Z,66.16
2023-04-15T20:13:36.811Z,66.27
2023-04-15T20:16:03.455Z,66.05
2023-04-15T20:18:29.971Z,66.28
2023-04-15T20:20:56.402Z,66.23
2023-04-15T20:23:22.813Z,65.87
2023-04-15T20:25:49.217Z,66.04
2023-04-15T20:28:17.875Z,66.06
2023-04-15T20:30:44.440Z,65.91
2023-04-15T20:33:11.566Z,66.02
2023-04-15T20:35:38.846Z,65.94
2023-04-15T20:38:05.738Z,65.95
2023-04-15T20:40:33.712Z,65.75
2023-04-15T20:43:00.540Z,66.01
2023-04-15T20:45:26.960Z,65.93
2023-04-15T20:47:55.090Z,66.06
2023-04-15T20:50:21.614Z,65.99
2023-04-15T20:52:48.020Z,66.02
2023-04-15T20:55:14.493Z,66.13
2023-04-15T20:57:41.115Z,66.23
2023-04-15T21:00:09.811Z,65.95
2023-04-15T21:02:36.943Z,66.09
2023-04-15T21:05:03.624Z,66.05
2023-04-15T21:07:30.069Z,66.05
2023-04-15T21:09:56.618Z,65.98
2023-04-15T21:12:23.166Z,66.04
2023-04-15T21:14:49.861Z,65.99
2023-04-15T21:17:16.407Z,66.16
2023-04-15T21:19:43.009Z,65.97
2023-04-15T21:22:09.791Z,66.21
2023-04-15T21:24:36.198Z,66.07
2023-04-15T21:27:02.818Z,66.01
2023-04-15T21:29:29.279Z,66.03
2023-04-15T21:31:55.733Z,65.88
2023-04-15T21:34:22.185Z,65.96
2023-04-15T21:36:48.606Z,66.03
2023-04-15T21:39:15.228Z,66.09
2023-04-15T21:41:41.724Z,66.17
2023-04-15T21:44:08.215Z,66.10
2023-04-15T21:46:35.922Z,66.04
2023-04-15T21:49:03.471Z,66.06
2023-04-15T21:51:30.063Z,65.92
2023-04-15T21:53:56.878Z,66.18
2023-04-15T21:56:24.553Z,66.26
2023-04-15T21:58:54.036Z,66.12
2023-04-15T22:01:21.080Z,66.17
2023-04-15T22:03:47.857Z,66.03
2023-04-15T22:06:14.447Z,66.00
2023-04-15T22:08:55.151Z,65.96
2023-04-15T22:11:30.181Z,66.04
2023-04-15T22:13:57.674Z,66.00
2023-04-15T22:16:27.497Z,65.99
2023-04-15T22:18:55.186Z,66.11
2023-04-15T22:21:22.016Z,66.10
2023-04-15T22:23:49.219Z,66.05
2023-04-15T22:26:15.786Z,66.14
2023-04-15T22:28:42.206Z,66.20
2023-04-15T22:31:08.782Z,66.15
2023-04-15T22:33:35.419Z,66.11
2023-04-15T22:36:01.971Z,66.24
2023-04-15T22:38:28.423Z,66.12
2023-04-15T22:40:54.968Z,66.26
2023-04-15T22:43:21.524Z,66.25
2023-04-15T22:45:50.517Z,66.21
2023-04-15T22:48:18.133Z,66.03
2023-04-15T22:50:44.678Z,66.37
2023-04-15T22:53:11.237Z,66.02
2023-04-15T22:55:37.643Z,66.24
2023-04-15T22:58:04.184Z,66.14
2023-04-15T23:00:30.612Z,66.07
2023-04-15T23:02:57.156Z,65.95
2023-04-15T23:05:23.790Z,66.07
2023-04-15T23:07:50.816Z,66.10
2023-04-15T23:10:17.236Z,66.21
2023-04-15T23:12:43.685Z,66.25
2023-04-15T23:15:10.530Z,66.27
2023-04-15T23:17:37.020Z,66.21
2023-04-15T23:20:03.601Z,66.07
2023-04-15T23:22:30.581Z,66.15
2023-04-15T23:24:56.998Z,66.21
2023-04-15T23:27:23.453Z,66.23
2023-04-15T23:29:49.895Z,66.22
2023-04-15T23:32:16.320Z,66.19
2023-04-15T23:34:42.798Z,66.30
2023-04-15T23:37:09.217Z,66.22
2023-04-15T23:39:35.614Z,66.13
2023-04-15T23:42:02.176Z,66.24
2023-04-15T23:44:28.595Z,66.24
2023-04-15T23:46:55.052Z,66.21
2023-04-15T23:49:21.558Z,66.20
2023-04-15T23:51:48.040Z,66.30
2023-04-15T23:54:14.910Z,66.22
2023-04-15T23:56:41.356Z,66.25
2023-04-15T23:59:08.061Z,66.35
